• Join FlightAware (Why Join?)
  • Login
  • US Flag 
12:14AM EDT


 

Airport Tracker/Info


-or-


 

Live Flight TrackerFlight Track Log ✈ N750CX ✈ 07-Mar-2008 ✈ KICT - KICT

Flight Track Log - Related Links

Times and Time Zones

All times are in EST time to prevent confusion due to time zone crossing. See the N750CX flight status page for this flight to view local times or setup timezone preferences in your user account.

Time Position Orientation Groundspeed Altitude Reporting Facility
EST Latitude Longitude Course Direction KTS MPH feet Rate Location/Type
12:59PM 37.7167 -97.3333 102° East 264 304 43,000  Level
01:00PM 37.7000 -97.2333 90° East 296 341 10,500 -15,240 Descending
01:01PM 37.7000 -97.1167 99° East 301 346 12,600 2,100 Climbing
01:02PM 37.6833 -96.9833 90° East 330 380 14,800 2,280 Climbing
01:03PM 37.6833 -96.8500 99° East 363 418 17,200 2,160 Climbing
01:04PM 37.6667 -96.7167 90° East 382 440 19,200 2,100 Climbing
01:05PM 37.6667 -96.5667 90° East 399 459 21,400 2,100 Climbing
01:06PM 37.6667 -96.4167 98° East 410 472 23,500 2,040 Climbing
01:07PM 37.6500 -96.2667 90° East 424 488 25,500 1,740 Climbing
01:08PM 37.6500 -96.1167 97° East 435 501 27,000 1,500 Climbing
01:09PM 37.6333 -95.9500 90° East 446 513 28,500 1,380 Climbing
01:10PM 37.6333 -95.7833 97° East 454 522 29,800 840 Climbing
01:11PM 37.6167 -95.6167 97° East 472 543 30,200 60 Climbing
01:12PM 37.6000 -95.4500 90° East 486 559 30,000 -120 Descending
01:13PM 37.6000 -95.2500 97° East 516 594 30,000  Level
01:14PM 37.5833 -95.0667 96° East 527 606 30,000 1,020 Level
01:15PM 37.5667 -94.8833 97° East 537 618 32,100 1,860 Climbing
01:16PM 37.5500 -94.7000 90° East 517 595 33,800 1,500 Climbing
01:17PM 37.5500 -94.5333 97° East 497 572 35,100 1,260 Climbing
01:18PM 37.5333 -94.3667 97° East 497 572 36,400 1,140 Climbing
01:19PM 37.5167 -94.2000 97° East 490 564 37,400 1,020 Climbing
01:20PM 37.5000 -94.0333 76° East 481 554 38,500 780 Climbing
01:21PM 37.5333 -93.8667 42° Northeast 462 532 39,000 540 Climbing
01:22PM 37.6500 -93.7333 29° Northeast 473 544 39,600 660 Climbing
01:23PM 37.7667 -93.6500 34° Northeast 473 544 40,400 780 Climbing
01:24PM 37.8833 -93.5500 31° Northeast 493 567 41,200 600 Climbing
01:25PM 38.0167 -93.4500 29° Northeast 498 573 41,600 420 Climbing
01:26PM 38.1333 -93.3667 34° Northeast 504 580 42,100 480 Climbing
01:27PM 38.2500 -93.2667 34° Northeast 504 580 42,600 420 Climbing
01:28PM 38.3667 -93.1667 34° Northeast 504 580 43,000 180 Climbing
01:29PM 38.4833 -93.0667 34° Northeast 504 580 43,000  Level
01:30PM 38.6000 -92.9667 30° Northeast 504 580 43,000  Level
01:31PM 38.7333 -92.8667 38° Northeast 514 592 43,000  Level
01:32PM 38.8500 -92.7500 30° Northeast 519 597 43,000  Level
01:33PM 38.9833 -92.6500 38° Northeast 525 604 43,000  Level
01:34PM 39.1000 -92.5333 30° Northeast 531 611 43,000  Level
01:35PM 39.2333 -92.4333 38° Northeast 531 611 43,000  Level
01:36PM 39.3500 -92.3167 30° Northeast 537 618 43,000  Level
01:37PM 39.4833 -92.2167 38° Northeast 537 618 43,000  Level
01:38PM 39.6000 -92.1000 34° Northeast 552 635 43,000  Level
01:39PM 39.7333 -91.9833 34° Northeast 552 635 43,000  Level
01:40PM 39.8667 -91.8667 54° Northeast 552 635 43,000  Level
01:41PM 39.9500 -91.7167 74° East 541 623 43,000  Level
01:42PM 39.9833 -91.5667 90° East 562 647 43,000  Level
01:42PM 39.9833 -91.5167 90° East 503 579 43,000  Level
01:43PM 39.9833 -91.3667 90° East 552 635 43,000  Level
01:43PM 39.9833 -91.3333 90° East 503 579 43,000  Level
01:44PM 39.9833 -91.1833 90° East 535 616 43,000  Level
01:44PM 39.9833 -91.1333 90° East 517 595 43,000  Level
01:45PM 39.9833 -90.9833 37° Northeast 528 608 43,000  Level
01:45PM 40.0000 -90.9667 90° East 523 602 43,000  Level
01:45PM 40.0000 -90.9500 74° East 524 603 43,000  Level
01:46PM 40.0333 -90.8000 90° East 523 602 43,000  Level
01:46PM 40.0333 -90.7667 47° Northeast 516 594 43,000  Level
01:47PM 40.1167 -90.6500 45° Northeast 596 686 43,000  Level
01:48PM 40.2167 -90.5167 41° Northeast 551 634 43,000  Level
01:49PM 40.3333 -90.3833 45° Northeast 530 610 43,000  Level
01:50PM 40.4333 -90.2500 37° Northeast 525 604 43,000  Level
01:51PM 40.5500 -90.1333 45° Northeast 525 604 43,000  Level
01:52PM 40.6500 -90.0000 44° Northeast 525 604 43,000  Level
01:53PM 40.7667 -89.8500 45° Northeast 525 604 43,000  Level
01:54PM 40.8667 -89.7167 45° Northeast 525 604 43,000  Level
01:55PM 40.9667 -89.5833 48° Northeast 525 604 43,000  Level
01:56PM 41.0667 -89.4333 45° Northeast 532 612 43,000  Level
01:57PM 41.1667 -89.3000 44° Northeast 527 606 43,000  Level
01:58PM 41.2833 -89.1500 37° Northeast 522 601 43,000  Level
01:59PM 41.4000 -89.0333 339° North 528 608 43,000  Level
02:00PM 41.5333 -89.1000 278° West 533 613 43,000  Level
02:01PM 41.5500 -89.2667 262° West 468 539 43,000  Level
02:02PM 41.5333 -89.4333 270° West 452 520 43,000  Level
02:03PM 41.5333 -89.5833 262° West 425 489 43,000  Level
02:04PM 41.5167 -89.7333 270° West 425 489 43,000  Level
02:05PM 41.5167 -89.9000 270° West 425 489 43,000  Level
02:06PM 41.5167 -90.0500 270° West 425 489 43,000  Level
02:07PM 41.5167 -90.2167 262° West 425 489 43,000  Level
02:08PM 41.5000 -90.3667 270° West 425 489 43,000  Level
02:09PM 41.5000 -90.5333 262° West 425 489 43,000  Level
02:10PM 41.4833 -90.6833 270° West 425 489 43,000  Level
02:11PM 41.4833 -90.8500 270° West 425 489 43,000  Level
02:12PM 41.4833 -91.0000 262° West 425 489 43,000  Level
02:13PM 41.4667 -91.1667 270° West 430 495 43,000  Level
02:14PM 41.4667 -91.3333 262° West 430 495 43,000  Level
02:15PM 41.4500 -91.4833 301° West 430 495 43,000  Level
02:16PM 41.5167 -91.6333 332° Northwest 468 539 43,000  Level
02:17PM 41.6333 -91.7167 360° North 489 563 43,000  Level
02:18PM 41.7833 -91.7167 355° North 511 588 43,000  Level
02:19PM 41.9333 -91.7333 355° North 511 588 43,000  Level
02:20PM 42.0667 -91.7500 355° North 506 582 43,000  Level
02:21PM 42.2167 -91.7667 54° Northeast 501 577 43,000  Level
02:22PM 42.3167 -91.5833 90° East 559 643 43,000  Level
02:23PM 42.3167 -91.3833 97° East 508 585 43,000  Level
02:24PM 42.3000 -91.2000 90° East 508 585 43,000  Level
02:25PM 42.3000 -91.0000 90° East 513 590 43,000  Level
02:26PM 42.3000 -90.8167 90° East 513 590 43,000  Level
02:27PM 42.3000 -90.6167 90° East 513 590 43,000  Level
02:28PM 42.3000 -90.4333 83° East 518 596 43,000  Level
02:29PM 42.3167 -90.2333 90° East 513 590 43,000  Level
02:30PM 42.3167 -90.0333 96° East 513 590 43,000  Level
02:31PM 42.3000 -89.8333 90° East 518 596 43,000  Level
02:32PM 42.3000 -89.6333 90° East 518 596 43,000  Level
02:33PM 42.3000 -89.4500 90° East 513 590 43,000  Level
02:34PM 42.3000 -89.2500 90° East 513 590 43,000  Level
02:35PM 42.3000 -89.0500 90° East 513 590 43,000  Level
02:36PM 42.3000 -88.8667 90° East 508 585 43,000  Level
02:37PM 42.3000 -88.6833 90° East 508 585 43,000  Level
02:38PM 42.3000 -88.4833 90° East 508 585 43,000  Level
02:39PM 42.3000 -88.3000 90° East 513 590 43,000  Level
02:40PM 42.3000 -88.1000 58° Northeast 513 590 43,000  Level
02:41PM 42.3833 -87.9167 48° Northeast 603 694 43,000  Level
02:42PM 42.4833 -87.7667 44° Northeast 562 647 43,000  Level
02:43PM 42.5833 -87.6333 43° Northeast 530 610 43,000  Level
02:44PM 42.7000 -87.4833 48° Northeast 530 610 43,000  Level
02:45PM 42.8000 -87.3333 48° Northeast 530 610 43,000  Level
02:46PM 42.9000 -87.1833 48° Northeast 530 610 43,000  Level
02:47PM 43.0000 -87.0333 48° Northeast 530 610 43,000  Level
02:48PM 43.1000 -86.8833 48° Northeast 530 610 43,000  Level
02:49PM 43.2000 -86.7333 50° Northeast 535 616 43,000  Level
02:50PM 43.3000 -86.5667 43° Northeast 535 616 43,000  Level
02:51PM 43.4167 -86.4167 154° Southeast 546 628 43,000  Level
02:51PM 43.4094 -86.4117 48° Northeast 548 631 43,000  Level
02:52PM 43.5142 -86.2531 48° Northeast 553 636 43,000  Level
02:53PM 43.6200 -86.0881 48° Northeast 553 636 43,000  Level
02:53PM 43.6667 -86.0167 63° Northeast 554 638 43,000  Level
02:54PM 43.7333 -85.8333 127° Southeast 559 643 43,000  Level
02:55PM 43.6333 -85.6500 153° Southeast 551 634 43,000  Level
02:56PM 43.5167 -85.5667 153° Southeast 496 571 43,000  Level
02:57PM 43.4000 -85.4833 153° Southeast 489 563 43,000  Level
02:58PM 43.2833 -85.4000 144° Southeast 474 545 43,000  Level
02:59PM 43.1833 -85.3000 180° South 469 540 43,000  Level
03:00PM 43.0667 -85.3000 221° Southwest 420 483 43,000  Level
03:01PM 42.9833 -85.4000 226° Southwest 402 463 43,000  Level
03:02PM 42.9000 -85.5167 232° Southwest 402 463 43,000  Level
03:03PM 42.8333 -85.6333 228° Southwest 397 457 43,000  Level
03:04PM 42.7667 -85.7333 221° Southwest 397 457 43,000  Level
03:05PM 42.6833 -85.8333 232° Southwest 397 457 43,000  Level
03:06PM 42.6167 -85.9500 216° Southwest 397 457 43,000  Level
03:07PM 42.5333 -86.0333 232° Southwest 392 451 43,000  Level
03:08PM 42.4667 -86.1500 222° Southwest 392 451 43,000  Level
03:09PM 42.3833 -86.2500 228° Southwest 392 451 43,000  Level
03:10PM 42.3167 -86.3500 222° Southwest 392 451 43,000  Level
03:11PM 42.2333 -86.4500 228° Southwest 385 443 43,000  Level
03:12PM 42.1667 -86.5500 222° Southwest 377 434 43,000  Level
03:13PM 42.0833 -86.6500 228° Southwest 377 434 43,000  Level
03:14PM 42.0167 -86.7500 222° Southwest 377 434 43,000  Level
03:15PM 41.9333 -86.8500 228° Southwest 377 434 43,000  Level
03:16PM 41.8667 -86.9500 217° Southwest 377 434 43,000  Level
03:17PM 41.7833 -87.0333 200° South 377 434 43,000  Level
03:18PM 41.6833 -87.0833 174° South 382 440 43,000  Level
03:19PM 41.5667 -87.0667 180° South 415 478 43,000  Level
03:20PM 41.4500 -87.0667 180° South 421 484 43,000  Level
03:21PM 41.3333 -87.0667 186° South 416 479 43,000  Level
03:22PM 41.2167 -87.0833 180° South 416 479 43,000  Level
03:23PM 41.1000 -87.0833 180° South 416 479 43,000  Level
03:24PM 40.9833 -87.0833 180° South 416 479 43,000  Level
03:25PM 40.8833 -87.0833 180° South 416 479 43,000  Level
03:26PM 40.7667 -87.0833 186° South 416 479 43,000  Level
03:27PM 40.6500 -87.1000 180° South 408 470 43,000  Level
03:28PM 40.5333 -87.1000 180° South 403 464 43,000  Level
03:32PM 40.1189 -87.0997 182° South 404 465 43,000  Level
03:33PM 40.0061 -87.1047 180° South 415 478 43,000  Level
03:34PM 39.8894 -87.1044 182° South 415 478 43,000  Level
03:35PM 39.7725 -87.1092 180° South 421 484 43,000  Level
03:36PM 39.6578 -87.1089 181° South 421 484 43,000  Level
03:37PM 39.5369 -87.1108 181° South 433 498 43,000  Level
03:38PM 39.4117 -87.1128 182° South 445 512 43,000  Level
03:39PM 39.2906 -87.1175 181° South 445 512 43,000  Level
03:40PM 39.1653 -87.1192 180° South 445 512 43,000  Level
03:41PM 39.0653 -87.1194 185° South 432 497 43,000  Level
03:42PM 38.9419 -87.1322 213° Southwest 432 497 43,000  Level
03:43PM 38.8433 -87.2153 245° Southwest 412 474 43,000  Level
03:44PM 38.7931 -87.3514 243° Southwest 425 489 43,000  Level
03:44PM 38.7667 -87.4167 276° West 432 497 43,000  Level
03:45PM 38.7833 -87.6167 270° West 480 552 43,000  Level
03:46PM 38.7833 -87.7667 278° West 468 539 43,000  Level
03:47PM 38.8000 -87.9167 270° West 455 524 43,000  Level
03:48PM 38.8000 -88.0833 303° West 455 524 43,000  Level
03:49PM 38.8667 -88.2167 337° Northwest 450 518 43,000  Level
03:50PM 39.0167 -88.3000 North 445 512 43,000  Level
03:51PM 39.1833 -88.2833 360° North 485 558 43,000  Level
03:52PM 39.3333 -88.2833 360° North 516 594 43,000  Level
03:53PM 39.5000 -88.2833 355° North 538 619 43,000  Level
03:54PM 39.6500 -88.3000 360° North 543 625 43,000  Level
03:54PM 39.6833 -88.3000 360° North 543 625 43,000  Level
03:55PM 39.8000 -88.3000 360° North 543 625 43,000  Level
03:55PM 39.8167 -88.3000 360° North 543 625 43,000  Level
03:56PM 39.9500 -88.3000 360° North 548 631 43,000  Level
03:56PM 39.9667 -88.3000 356° North 545 627 43,000  Level
03:57PM 40.1500 -88.3167 350° North 626 720 43,000  Level
03:58PM 40.3000 -88.3500 355° North 577 664 43,000  Level
03:59PM 40.4500 -88.3667 360° North 565 650 43,000  Level
04:00PM 40.6000 -88.3667 360° North 555 639 43,000  Level
04:01PM 40.7500 -88.3667 306° West 555 639 43,000  Level
04:02PM 40.8333 -88.5167 234° Southwest 516 594 43,000  Level
04:03PM 40.7500 -88.6667 212° Southwest 492 566 43,000  Level
04:04PM 40.6500 -88.7500 217° Southwest 478 550 43,000  Level
04:05PM 40.5500 -88.8500 222° Southwest 453 521 43,000  Level
04:06PM 40.4667 -88.9500 224° Southwest 439 505 43,000  Level
04:07PM 40.4000 -89.0333 217° Southwest 439 505 43,000  Level
04:07PM 40.3667 -89.0667 232° Southwest 439 505 43,000  Level
04:08PM 40.3167 -89.1500 217° Southwest 439 505 43,000  Level
04:09PM 40.2167 -89.2500 227° Southwest 444 511 43,000  Level
04:10PM 40.1333 -89.3667 217° Southwest 449 517 43,000  Level
04:11PM 40.0333 -89.4667 227° Southwest 455 524 43,000  Level
04:12PM 39.9500 -89.5833 218° Southwest 455 524 43,000  Level
04:13PM 39.8500 -89.6833 227° Southwest 455 524 43,000  Level
04:14PM 39.7667 -89.8000 223° Southwest 455 524 43,000  Level
04:15PM 39.6833 -89.9000 218° Southwest 450 518 43,000  Level
04:16PM 39.5833 -90.0000 191° South 450 518 43,000  Level
04:17PM 39.4500 -90.0333 180° South 437 503 43,000 960 Level
04:18PM 39.3333 -90.0333 186° South 447 514 45,000 420 Climbing
04:19PM 39.2000 -90.0500 180° South 453 521 43,900  Descending
04:20PM 39.0833 -90.0500 186° South 439 505 45,000 540 Climbing
04:21PM 38.9667 -90.0667 198° South 434 499 45,000  Level
04:22PM 38.8500 -90.1167 237° Southwest 422 486 45,000  Level
04:23PM 38.7833 -90.2500 234° Southwest 416 479 45,000  Level
04:24PM 38.7167 -90.3667 240° Southwest 422 486 45,000  Level
04:25PM 38.6500 -90.5167 234° Southwest 438 504 45,000  Level
04:26PM 38.5833 -90.6333 231° Southwest 444 511 45,000  Level
04:27PM 38.5000 -90.7667 234° Southwest 444 511 45,000  Level
04:28PM 38.4333 -90.8833 238° Southwest 444 511 45,000  Level
04:29PM 38.3667 -91.0167 238° Southwest 444 511 45,000  Level
04:30PM 38.3000 -91.1500 232° Southwest 444 511 45,000  Level
04:31PM 38.2167 -91.2833 234° Southwest 444 511 45,000  Level
04:32PM 38.1500 -91.4000 238° Southwest 439 505 45,000  Level
04:33PM 38.0833 -91.5333 234° Southwest 439 505 45,000  Level
04:34PM 38.0167 -91.6500 232° Southwest 444 511 45,000  Level
04:35PM 37.9333 -91.7833 238° Southwest 455 524 45,000  Level
04:36PM 37.8667 -91.9167 238° Southwest 455 524 45,000  Level
04:37PM 37.8000 -92.0500 247° West 460 529 45,000 -1,020 Level
04:38PM 37.7500 -92.2000 270° West 448 516 43,000 -1,020 Descending
04:39PM 37.7500 -92.3667 263° West 448 516 43,000  Level
04:40PM 37.7333 -92.5333 262° West 459 528 43,000 660 Level
04:41PM 37.7167 -92.6833 270° West 464 534 44,400 180 Climbing
04:42PM 37.7167 -92.8500 263° West 464 534 43,400 -720 Descending
04:43PM 37.7000 -93.0167 263° West 464 534 43,000 -240 Descending
04:44PM 37.6833 -93.1833 262° West 464 534 43,000  Level
04:45PM 37.6667 -93.3333 263° West 464 534 43,000  Level
04:46PM 37.6500 -93.5000 263° West 469 540 43,000  Level
04:47PM 37.6333 -93.6667 263° West 469 540 43,000  Level
04:48PM 37.6167 -93.8333 256° West 474 545 43,000  Level
04:49PM 37.5833 -94.0000 262° West 474 545 43,000  Level
04:50PM 37.5667 -94.1500 263° West 474 545 43,000  Level
04:51PM 37.5500 -94.3167 263° West 468 539 43,000  Level
04:52PM 37.5333 -94.4833 263° West 478 550 43,000 -600 Level
04:53PM 37.5167 -94.6500 263° West 483 556 41,900 -1,500 Descending
04:54PM 37.5000 -94.8167 257° West 483 556 40,000 -2,520 Descending
04:55PM 37.4667 -95.0000 263° West 493 567 37,000 -1,500 Descending
04:56PM 37.4500 -95.1667 264° West 503 579 37,000 -420 Level
04:57PM 37.4333 -95.3500 264° West 508 585 36,200 -1,380 Descending
04:58PM 37.4167 -95.5333 257° West 513 590 34,300 3,360 Descending
04:59PM 37.3833 -95.7167 263° West 518 596 43,000 -540 Climbing
05:00PM 37.3667 -95.8833 277° West 518 596 33,300 -7,200 Descending
05:01PM 37.3833 -96.0667 284° West 518 596 28,600 -4,080 Descending
05:02PM 37.4167 -96.2333 278° West 493 567 25,200 7,200 Descending
05:03PM 37.4333 -96.3833 286° West 476 548 43,000 8,880 Climbing
05:04PM 37.4667 -96.5333 288° West 440 506 43,000 -9,660 Level
05:05PM 37.5000 -96.6667 279° West 427 491 23,700 -11,340 Descending
05:06PM 37.5167 -96.8000 286° West 422 486 20,200 -3,600 Descending
05:07PM 37.5500 -96.9500 261° West 422 486 16,500 -2,580 Descending
05:08PM 37.5333 -97.0833 270° West 394 453 15,200 -2,340 Descending
05:09PM 37.5333 -97.2000 243° Southwest 352 405 11,900 -3,180 Descending
05:10PM 37.5000 -97.2833 256° West 307 353 8,900 -2,460 Descending
05:11PM 37.4833 -97.3667 256° West 282 325 7,000 -2,700 Descending
05:12PM 37.4667 -97.4500 287° West 264 304 3,600 -2,100 Descending
05:13PM 37.4833 -97.5167 28° Northeast 220 253 2,900 -360 Descending
05:14PM 37.5333 -97.4833 22° Northeast 102 117 2,900 -180 Level
05:15PM 37.5667 -97.4667 15° North 113 130 2,600 -420 Descending
05:16PM 37.6167 -97.4500 39° Northeast 126 145 2,100 -660 Descending
05:17PM 37.6333 -97.4333 21° North 121 139 1,400 -480 Descending
05:18PM 37.6667 -97.4167 21° North 121 139 1,200 -240 Descending